sensor_id;sensor_type;location;lat;lon;timestamp;temperature;humidity
38398;DHT22;24179;52.094;4.408;2023-06-19T00:00:47;21.70;99.90
38398;DHT22;24179;52.094;4.408;2023-06-19T00:03:48;21.60;99.90
38398;DHT22;24179;52.094;4.408;2023-06-19T00:06:48;21.50;99.90
38398;DHT22;24179;52.094;4.408;2023-06-19T00:09:49;21.40;99.90
38398;DHT22;24179;52.094;4.408;2023-06-19T00:12:49;21.30;99.90
38398;DHT22;24179;52.094;4.408;2023-06-19T00:15:50;21.10;99.90
38398;DHT22;24179;52.094;4.408;2023-06-19T00:18:51;21.00;99.90
38398;DHT22;24179;52.094;4.408;2023-06-19T00:21:55;20.90;99.90
38398;DHT22;24179;52.094;4.408;2023-06-19T00:24:57;21.00;99.90
38398;DHT22;24179;52.094;4.408;2023-06-19T00:27:58;20.70;99.90
38398;DHT22;24179;52.094;4.408;2023-06-19T00:30:58;20.60;99.90
38398;DHT22;24179;52.094;4.408;2023-06-19T05:25:20;17.40;99.90
38398;DHT22;24179;52.094;4.408;2023-06-19T05:28:20;17.30;99.90
38398;DHT22;24179;52.094;4.408;2023-06-19T05:31:21;17.20;99.90
38398;DHT22;24179;52.094;4.408;2023-06-19T05:34:21;17.60;99.90
38398;DHT22;24179;52.094;4.408;2023-06-19T05:37:25;17.60;99.90
38398;DHT22;24179;52.094;4.408;2023-06-19T05:40:27;17.40;99.90
38398;DHT22;24179;52.094;4.408;2023-06-19T05:43:28;17.20;99.90
38398;DHT22;24179;52.094;4.408;2023-06-19T05:46:29;17.20;99.90
38398;DHT22;24179;52.094;4.408;2023-06-19T05:49:30;17.10;99.90
38398;DHT22;24179;52.094;4.408;2023-06-19T05:52:31;17.00;99.90
38398;DHT22;24179;52.094;4.408;2023-06-19T05:55:31;16.90;99.90
38398;DHT22;24179;52.094;4.408;2023-06-19T05:58:32;16.90;99.90
38398;DHT22;24179;52.094;4.408;2023-06-19T12:07:29;27.80;93.70
38398;DHT22;24179;52.094;4.408;2023-06-19T12:10:30;28.00;95.30
38398;DHT22;24179;52.094;4.408;2023-06-19T12:13:30;28.70;93.70
38398;DHT22;24179;52.094;4.408;2023-06-19T12:16:34;29.70;93.10
38398;DHT22;24179;52.094;4.408;2023-06-19T12:19:34;29.30;93.30
38398;DHT22;24179;52.094;4.408;2023-06-19T12:22:35;28.30;93.80
38398;DHT22;24179;52.094;4.408;2023-06-19T12:25:35;28.70;93.90
38398;DHT22;24179;52.094;4.408;2023-06-19T12:28:36;29.90;91.90
38398;DHT22;24179;52.094;4.408;2023-06-19T12:31:36;30.30;91.80
38398;DHT22;24179;52.094;4.408;2023-06-19T12:34:37;30.30;91.60
38398;DHT22;24179;52.094;4.408;2023-06-19T12:37:37;29.50;91.50
38398;DHT22;24179;52.094;4.408;2023-06-19T12:40:38;28.60;92.10
38398;DHT22;24179;52.094;4.408;2023-06-19T12:43:38;28.30;93.10
38398;DHT22;24179;52.094;4.408;2023-06-19T12:46:39;28.80;92.50
38398;DHT22;24179;52.094;4.408;2023-06-19T12:49:39;29.10;92.40
38398;DHT22;24179;52.094;4.408;2023-06-19T12:52:40;28.80;91.30
38398;DHT22;24179;52.094;4.408;2023-06-19T12:55:40;28.50;91.80
38398;DHT22;24179;52.094;4.408;2023-06-19T12:58:41;28.50;90.50
38398;DHT22;24179;52.094;4.408;2023-06-19T13:01:42;28.40;90.80
38398;DHT22;24179;52.094;4.408;2023-06-19T13:04:42;29.50;91.30
38398;DHT22;24179;52.094;4.408;2023-06-19T13:07:43;30.10;87.70
38398;DHT22;24179;52.094;4.408;2023-06-19T13:10:43;30.20;84.30
38398;DHT22;24179;52.094;4.408;2023-06-19T13:13:44;30.30;86.30
38398;DHT22;24179;52.094;4.408;2023-06-19T13:16:44;30.10;84.10
38398;DHT22;24179;52.094;4.408;2023-06-19T13:19:45;29.90;83.00
38398;DHT22;24179;52.094;4.408;2023-06-19T13:22:45;29.70;83.00
38398;DHT22;24179;52.094;4.408;2023-06-19T13:25:46;29.40;84.80
38398;DHT22;24179;52.094;4.408;2023-06-19T13:28:47;29.70;84.30
38398;DHT22;24179;52.094;4.408;2023-06-19T13:31:48;29.80;84.30
38398;DHT22;24179;52.094;4.408;2023-06-19T13:34:48;30.30;84.50
38398;DHT22;24179;52.094;4.408;2023-06-19T13:37:49;30.40;84.00
38398;DHT22;24179;52.094;4.408;2023-06-19T13:40:52;30.20;84.00
38398;DHT22;24179;52.094;4.408;2023-06-19T13:43:52;29.60;83.30
38398;DHT22;24179;52.094;4.408;2023-06-19T13:46:53;29.70;84.30
38398;DHT22;24179;52.094;4.408;2023-06-19T13:49:54;29.70;84.30
38398;DHT22;24179;52.094;4.408;2023-06-19T13:52:55;29.50;84.90
38398;DHT22;24179;52.094;4.408;2023-06-19T13:55:55;29.30;85.60
38398;DHT22;24179;52.094;4.408;2023-06-19T13:58:57;30.00;86.50
38398;DHT22;24179;52.094;4.408;2023-06-19T14:01:58;30.10;85.60
38398;DHT22;24179;52.094;4.408;2023-06-19T14:04:58;29.80;83.10
38398;DHT22;24179;52.094;4.408;2023-06-19T14:08:00;30.00;86.10
38398;DHT22;24179;52.094;4.408;2023-06-19T14:11:00;30.50;84.70
38398;DHT22;24179;52.094;4.408;2023-06-19T14:14:01;29.90;83.50
38398;DHT22;24179;52.094;4.408;2023-06-19T14:17:01;29.60;85.10
38398;DHT22;24179;52.094;4.408;2023-06-19T14:20:08;28.90;85.10
38398;DHT22;24179;52.094;4.408;2023-06-19T14:23:08;28.60;86.30
38398;DHT22;24179;52.094;4.408;2023-06-19T14:26:09;28.80;86.20
38398;DHT22;24179;52.094;4.408;2023-06-19T14:29:10;28.80;85.10
38398;DHT22;24179;52.094;4.408;2023-06-19T14:32:10;29.00;87.00
38398;DHT22;24179;52.094;4.408;2023-06-19T14:35:11;29.30;86.60
38398;DHT22;24179;52.094;4.408;2023-06-19T14:38:12;29.30;85.50
38398;DHT22;24179;52.094;4.408;2023-06-19T14:41:13;29.20;86.30
38398;DHT22;24179;52.094;4.408;2023-06-19T14:44:14;29.30;84.60
38398;DHT22;24179;52.094;4.408;2023-06-19T14:47:15;29.20;85.50
38398;DHT22;24179;52.094;4.408;2023-06-19T14:50:16;29.10;84.90
38398;DHT22;24179;52.094;4.408;2023-06-19T14:53:16;29.00;84.30
38398;DHT22;24179;52.094;4.408;2023-06-19T14:56:17;29.00;83.80
38398;DHT22;24179;52.094;4.408;2023-06-19T14:59:17;29.00;84.70
38398;DHT22;24179;52.094;4.408;2023-06-19T15:02:19;29.50;85.20
38398;DHT22;24179;52.094;4.408;2023-06-19T15:05:19;29.50;82.80
38398;DHT22;24179;52.094;4.408;2023-06-19T15:08:20;29.20;81.20
38398;DHT22;24179;52.094;4.408;2023-06-19T15:11:22;29.10;82.10
38398;DHT22;24179;52.094;4.408;2023-06-19T15:14:22;29.20;83.20
38398;DHT22;24179;52.094;4.408;2023-06-19T15:17:23;29.40;84.20
38398;DHT22;24179;52.094;4.408;2023-06-19T15:20:25;29.80;83.80
38398;DHT22;24179;52.094;4.408;2023-06-19T15:23:26;30.00;82.20
38398;DHT22;24179;52.094;4.408;2023-06-19T15:26:27;29.80;82.20
38398;DHT22;24179;52.094;4.408;2023-06-19T15:29:27;30.00;83.70
38398;DHT22;24179;52.094;4.408;2023-06-19T15:32:28;30.50;83.50
38398;DHT22;24179;52.094;4.408;2023-06-19T15:35:28;30.30;83.30
38398;DHT22;24179;52.094;4.408;2023-06-19T15:38:29;30.40;82.80
38398;DHT22;24179;52.094;4.408;2023-06-19T15:41:30;30.40;81.50
38398;DHT22;24179;52.094;4.408;2023-06-19T15:44:30;30.30;82.50
38398;DHT22;24179;52.094;4.408;2023-06-19T15:47:31;30.30;82.50
38398;DHT22;24179;52.094;4.408;2023-06-19T15:50:34;30.10;80.10
38398;DHT22;24179;52.094;4.408;2023-06-19T15:53:36;29.70;79.20
38398;DHT22;24179;52.094;4.408;2023-06-19T15:56:37;29.80;81.90
38398;DHT22;24179;52.094;4.408;2023-06-19T15:59:38;29.80;80.20
38398;DHT22;24179;52.094;4.408;2023-06-19T16:02:39;29.60;81.00
38398;DHT22;24179;52.094;4.408;2023-06-19T16:05:43;29.40;80.60
38398;DHT22;24179;52.094;4.408;2023-06-19T16:08:45;29.70;80.90
38398;DHT22;24179;52.094;4.408;2023-06-19T16:11:46;29.60;81.30
38398;DHT22;24179;52.094;4.408;2023-06-19T16:14:48;29.50;81.10
38398;DHT22;24179;52.094;4.408;2023-06-19T16:17:49;29.20;80.90
38398;DHT22;24179;52.094;4.408;2023-06-19T16:20:49;28.60;81.20
38398;DHT22;24179;52.094;4.408;2023-06-19T16:23:50;28.20;82.00
38398;DHT22;24179;52.094;4.408;2023-06-19T16:26:53;28.00;83.50
38398;DHT22;24179;52.094;4.408;2023-06-19T16:29:55;27.50;82.10
38398;DHT22;24179;52.094;4.408;2023-06-19T16:32:56;26.70;83.40
38398;DHT22;24179;52.094;4.408;2023-06-19T16:35:56;26.00;83.40
38398;DHT22;24179;52.094;4.408;2023-06-19T16:38:59;25.60;83.40
38398;DHT22;24179;52.094;4.408;2023-06-19T16:42:00;25.40;84.50
38398;DHT22;24179;52.094;4.408;2023-06-19T16:45:06;25.40;86.10
38398;DHT22;24179;52.094;4.408;2023-06-19T16:48:07;25.40;85.30
38398;DHT22;24179;52.094;4.408;2023-06-19T16:51:08;25.10;85.00
38398;DHT22;24179;52.094;4.408;2023-06-19T16:54:08;24.90;86.30
38398;DHT22;24179;52.094;4.408;2023-06-19T16:57:08;24.70;85.40
38398;DHT22;24179;52.094;4.408;2023-06-19T17:00:12;24.60;85.40
38398;DHT22;24179;52.094;4.408;2023-06-19T17:03:12;24.50;86.70
38398;DHT22;24179;52.094;4.408;2023-06-19T17:06:13;24.40;86.00
38398;DHT22;24179;52.094;4.408;2023-06-19T17:09:13;24.20;86.60
38398;DHT22;24179;52.094;4.408;2023-06-19T17:12:14;24.10;86.60
38398;DHT22;24179;52.094;4.408;2023-06-19T17:15:15;24.00;87.50
38398;DHT22;24179;52.094;4.408;2023-06-19T17:18:17;23.90;88.00
38398;DHT22;24179;52.094;4.408;2023-06-19T17:21:17;23.80;88.30
38398;DHT22;24179;52.094;4.408;2023-06-19T17:24:19;23.70;88.70
38398;DHT22;24179;52.094;4.408;2023-06-19T17:27:20;23.60;88.20
38398;DHT22;24179;52.094;4.408;2023-06-19T17:30:20;23.50;88.40
38398;DHT22;24179;52.094;4.408;2023-06-19T17:33:21;23.40;88.30
38398;DHT22;24179;52.094;4.408;2023-06-19T17:36:21;23.30;88.30
38398;DHT22;24179;52.094;4.408;2023-06-19T17:39:22;23.30;88.90
38398;DHT22;24179;52.094;4.408;2023-06-19T17:42:25;23.30;89.90
38398;DHT22;24179;52.094;4.408;2023-06-19T17:45:26;23.30;89.60
38398;DHT22;24179;52.094;4.408;2023-06-19T17:48:26;23.30;88.90
38398;DHT22;24179;52.094;4.408;2023-06-19T17:51:29;23.20;89.10
38398;DHT22;24179;52.094;4.408;2023-06-19T17:54:30;23.20;89.40
38398;DHT22;24179;52.094;4.408;2023-06-19T17:57:30;23.20;89.40
38398;DHT22;24179;52.094;4.408;2023-06-19T18:00:31;23.20;89.60
38398;DHT22;24179;52.094;4.408;2023-06-19T18:03:31;23.10;89.40
38398;DHT22;24179;52.094;4.408;2023-06-19T18:06:32;23.10;89.50
38398;DHT22;24179;52.094;4.408;2023-06-19T18:09:32;23.00;90.00
38398;DHT22;24179;52.094;4.408;2023-06-19T18:12:33;22.90;90.30
38398;DHT22;24179;52.094;4.408;2023-06-19T18:15:37;22.80;90.00
38398;DHT22;24179;52.094;4.408;2023-06-19T18:18:38;22.70;90.20
38398;DHT22;24179;52.094;4.408;2023-06-19T18:21:38;22.60;90.50
38398;DHT22;24179;52.094;4.408;2023-06-19T18:24:41;22.70;90.60
38398;DHT22;24179;52.094;4.408;2023-06-19T18:27:42;22.70;90.80
38398;DHT22;24179;52.094;4.408;2023-06-19T18:30:42;22.50;90.80
38398;DHT22;24179;52.094;4.408;2023-06-19T18:33:43;22.40;91.10
38398;DHT22;24179;52.094;4.408;2023-06-19T18:36:43;22.30;90.70
38398;DHT22;24179;52.094;4.408;2023-06-19T18:39:44;22.30;91.20
38398;DHT22;24179;52.094;4.408;2023-06-19T18:42:44;22.20;91.40
38398;DHT22;24179;52.094;4.408;2023-06-19T18:45:45;22.20;91.60
38398;DHT22;24179;52.094;4.408;2023-06-19T18:48:45;22.20;91.80
38398;DHT22;24179;52.094;4.408;2023-06-19T18:51:48;22.10;92.10
38398;DHT22;24179;52.094;4.408;2023-06-19T18:54:52;22.10;92.60
38398;DHT22;24179;52.094;4.408;2023-06-19T18:57:52;22.10;93.00
38398;DHT22;24179;52.094;4.408;2023-06-19T19:00:53;22.00;93.00
38398;DHT22;24179;52.094;4.408;2023-06-19T19:03:54;22.00;93.00
38398;DHT22;24179;52.094;4.408;2023-06-19T19:06:55;21.90;93.10
38398;DHT22;24179;52.094;4.408;2023-06-19T19:09:55;21.90;93.40
38398;DHT22;24179;52.094;4.408;2023-06-19T19:12:56;21.90;93.60
38398;DHT22;24179;52.094;4.408;2023-06-19T19:15:56;21.90;93.90
38398;DHT22;24179;52.094;4.408;2023-06-19T19:18:58;21.80;93.90
38398;DHT22;24179;52.094;4.408;2023-06-19T19:21:58;21.80;94.20
38398;DHT22;24179;52.094;4.408;2023-06-19T19:24:59;21.70;94.20
38398;DHT22;24179;52.094;4.408;2023-06-19T19:28:02;21.60;94.10
38398;DHT22;24179;52.094;4.408;2023-06-19T19:31:03;21.60;94.40
38398;DHT22;24179;52.094;4.408;2023-06-19T19:34:03;21.50;94.20
38398;DHT22;24179;52.094;4.408;2023-06-19T19:37:04;21.50;94.30
38398;DHT22;24179;52.094;4.408;2023-06-19T19:40:05;21.50;94.30
38398;DHT22;24179;52.094;4.408;2023-06-19T19:43:08;21.40;94.40
38398;DHT22;24179;52.094;4.408;2023-06-19T19:46:09;21.30;94.20
38398;DHT22;24179;52.094;4.408;2023-06-19T19:49:10;21.40;94.80
38398;DHT22;24179;52.094;4.408;2023-06-19T19:52:11;21.20;95.00
38398;DHT22;24179;52.094;4.408;2023-06-19T19:55:12;21.20;95.30
38398;DHT22;24179;52.094;4.408;2023-06-19T19:58:13;21.10;95.30
38398;DHT22;24179;52.094;4.408;2023-06-19T20:01:14;21.10;96.10
38398;DHT22;24179;52.094;4.408;2023-06-19T20:04:17;21.10;96.00
38398;DHT22;24179;52.094;4.408;2023-06-19T20:07:17;21.00;96.30
38398;DHT22;24179;52.094;4.408;2023-06-19T20:10:18;21.00;97.50
38398;DHT22;24179;52.094;4.408;2023-06-19T20:13:18;20.90;97.70
38398;DHT22;24179;52.094;4.408;2023-06-19T20:16:19;20.90;98.50
38398;DHT22;24179;52.094;4.408;2023-06-19T20:19:19;20.80;99.40
38398;DHT22;24179;52.094;4.408;2023-06-19T20:22:20;20.80;99.90
38398;DHT22;24179;52.094;4.408;2023-06-19T20:25:29;20.70;99.90
38398;DHT22;24179;52.094;4.408;2023-06-19T20:28:30;20.60;99.90
38398;DHT22;24179;52.094;4.408;2023-06-19T20:31:30;20.60;99.90
38398;DHT22;24179;52.094;4.408;2023-06-19T20:34:33;20.60;99.90
38398;DHT22;24179;52.094;4.408;2023-06-19T20:37:34;20.60;99.90
38398;DHT22;24179;52.094;4.408;2023-06-19T20:40:34;20.50;99.90
38398;DHT22;24179;52.094;4.408;2023-06-19T20:43:35;20.60;99.90
38398;DHT22;24179;52.094;4.408;2023-06-19T20:46:35;20.50;99.90
38398;DHT22;24179;52.094;4.408;2023-06-19T20:49:37;20.50;99.90
38398;DHT22;24179;52.094;4.408;2023-06-19T20:52:37;20.50;99.90
38398;DHT22;24179;52.094;4.408;2023-06-19T20:55:38;20.50;99.90
38398;DHT22;24179;52.094;4.408;2023-06-19T20:58:41;20.60;99.90
38398;DHT22;24179;52.094;4.408;2023-06-19T21:01:42;20.50;99.90
38398;DHT22;24179;52.094;4.408;2023-06-19T21:04:42;20.50;99.90
38398;DHT22;24179;52.094;4.408;2023-06-19T21:07:43;20.50;99.90
38398;DHT22;24179;52.094;4.408;2023-06-19T21:10:47;20.50;99.90
38398;DHT22;24179;52.094;4.408;2023-06-19T21:13:48;20.50;99.90
38398;DHT22;24179;52.094;4.408;2023-06-19T21:16:48;20.50;99.90
38398;DHT22;24179;52.094;4.408;2023-06-19T21:19:49;20.60;99.90
38398;DHT22;24179;52.094;4.408;2023-06-19T21:22:49;20.60;99.90
38398;DHT22;24179;52.094;4.408;2023-06-19T21:25:50;20.60;99.90
38398;DHT22;24179;52.094;4.408;2023-06-19T21:28:51;20.60;99.90
38398;DHT22;24179;52.094;4.408;2023-06-19T21:31:54;20.70;99.90
38398;DHT22;24179;52.094;4.408;2023-06-19T21:34:54;20.70;99.90
38398;DHT22;24179;52.094;4.408;2023-06-19T21:37:55;20.70;99.90
38398;DHT22;24179;52.094;4.408;2023-06-19T21:40:55;20.70;99.90
38398;DHT22;24179;52.094;4.408;2023-06-19T21:43:56;20.70;99.90
38398;DHT22;24179;52.094;4.408;2023-06-19T21:46:59;20.70;99.90
38398;DHT22;24179;52.094;4.408;2023-06-19T21:49:59;20.70;99.90
38398;DHT22;24179;52.094;4.408;2023-06-19T21:53:00;20.70;99.90
38398;DHT22;24179;52.094;4.408;2023-06-19T21:56:00;20.70;99.90
38398;DHT22;24179;52.094;4.408;2023-06-19T21:59:01;20.70;99.90
38398;DHT22;24179;52.094;4.408;2023-06-19T22:02:02;20.70;99.90
38398;DHT22;24179;52.094;4.408;2023-06-19T22:05:02;20.70;99.90
38398;DHT22;24179;52.094;4.408;2023-06-19T22:08:03;20.80;99.90
38398;DHT22;24179;52.094;4.408;2023-06-19T22:11:05;20.80;99.90
38398;DHT22;24179;52.094;4.408;2023-06-19T22:14:05;20.80;99.90
38398;DHT22;24179;52.094;4.408;2023-06-19T22:17:09;20.80;99.90
38398;DHT22;24179;52.094;4.408;2023-06-19T22:20:12;20.80;99.90
38398;DHT22;24179;52.094;4.408;2023-06-19T22:23:14;20.80;99.90
38398;DHT22;24179;52.094;4.408;2023-06-19T22:26:15;20.80;99.90
38398;DHT22;24179;52.094;4.408;2023-06-19T22:29:15;20.80;99.90
38398;DHT22;24179;52.094;4.408;2023-06-19T22:32:16;20.80;99.90
38398;DHT22;24179;52.094;4.408;2023-06-19T22:35:17;20.80;99.90
38398;DHT22;24179;52.094;4.408;2023-06-19T22:38:17;20.80;99.90
38398;DHT22;24179;52.094;4.408;2023-06-19T22:41:18;20.80;99.90
38398;DHT22;24179;52.094;4.408;2023-06-19T22:44:18;20.70;99.90
38398;DHT22;24179;52.094;4.408;2023-06-19T22:47:19;20.80;99.90
38398;DHT22;24179;52.094;4.408;2023-06-19T22:50:19;20.80;99.90
38398;DHT22;24179;52.094;4.408;2023-06-19T22:53:20;20.70;99.90
38398;DHT22;24179;52.094;4.408;2023-06-19T22:56:21;20.70;99.90
38398;DHT22;24179;52.094;4.408;2023-06-19T22:59:23;20.70;99.90
38398;DHT22;24179;52.094;4.408;2023-06-19T23:02:23;20.70;99.90
38398;DHT22;24179;52.094;4.408;2023-06-19T23:05:23;20.70;99.90
38398;DHT22;24179;52.094;4.408;2023-06-19T23:08:24;20.60;99.90
38398;DHT22;24179;52.094;4.408;2023-06-19T23:11:24;20.50;99.90
38398;DHT22;24179;52.094;4.408;2023-06-19T23:14:27;20.40;99.90
38398;DHT22;24179;52.094;4.408;2023-06-19T23:17:30;20.40;99.90
38398;DHT22;24179;52.094;4.408;2023-06-19T23:20:33;20.40;99.90
38398;DHT22;24179;52.094;4.408;2023-06-19T23:23:34;20.30;99.90
38398;DHT22;24179;52.094;4.408;2023-06-19T23:26:36;20.30;99.90
38398;DHT22;24179;52.094;4.408;2023-06-19T23:29:37;20.20;99.90
38398;DHT22;24179;52.094;4.408;2023-06-19T23:32:40;20.20;99.90
38398;DHT22;24179;52.094;4.408;2023-06-19T23:35:47;20.20;99.90
38398;DHT22;24179;52.094;4.408;2023-06-19T23:38:47;20.20;99.90
38398;DHT22;24179;52.094;4.408;2023-06-19T23:41:51;20.20;99.90
38398;DHT22;24179;52.094;4.408;2023-06-19T23:44:51;20.30;99.90
38398;DHT22;24179;52.094;4.408;2023-06-19T23:47:52;20.30;99.90
38398;DHT22;24179;52.094;4.408;2023-06-19T23:50:53;20.30;99.90
38398;DHT22;24179;52.094;4.408;2023-06-19T23:53:53;20.20;99.90
38398;DHT22;24179;52.094;4.408;2023-06-19T23:56:53;20.20;99.90
38398;DHT22;24179;52.094;4.408;2023-06-19T23:59:54;20.30;99.90
